createdAt,value
2018-09-18T00:00:04.873Z,12.15
2018-09-18T00:02:31.759Z,12.07
2018-09-18T00:04:58.683Z,12.01
2018-09-18T00:07:25.582Z,12.00
2018-09-18T00:09:52.509Z,11.90
2018-09-18T00:12:19.404Z,11.90
2018-09-18T00:14:46.328Z,11.85
2018-09-18T00:17:13.211Z,11.76
2018-09-18T00:19:40.109Z,11.72
2018-09-18T00:22:07.012Z,11.69
2018-09-18T00:24:33.921Z,11.70
2018-09-18T00:27:00.822Z,11.67
2018-09-18T00:29:27.722Z,11.62
2018-09-18T00:31:54.629Z,11.55
2018-09-18T00:34:21.539Z,11.51
2018-09-18T00:36:48.429Z,11.50
2018-09-18T00:39:15.323Z,11.47
2018-09-18T00:41:42.232Z,11.47
2018-09-18T00:44:09.153Z,11.43
2018-09-18T00:46:36.059Z,11.40
2018-09-18T00:49:02.975Z,11.38
2018-09-18T00:51:29.875Z,11.34
2018-09-18T00:53:56.775Z,11.31
2018-09-18T00:56:23.673Z,11.27
2018-09-18T00:58:50.568Z,11.29
2018-09-18T01:01:17.482Z,11.24
2018-09-18T01:03:44.889Z,11.24
2018-09-18T01:06:12.003Z,11.23
2018-09-18T01:08:39.009Z,11.25
2018-09-18T01:11:05.917Z,11.22
2018-09-18T01:13:32.800Z,11.19
2018-09-18T01:15:59.695Z,11.17
2018-09-18T01:18:33.992Z,11.16
2018-09-18T01:21:00.937Z,11.19
2018-09-18T01:23:27.824Z,11.19
2018-09-18T01:25:54.733Z,11.22
2018-09-18T01:28:21.644Z,11.24
2018-09-18T01:30:48.540Z,11.26
2018-09-18T01:33:15.436Z,11.25
2018-09-18T01:35:42.335Z,11.23
2018-09-18T01:38:09.220Z,11.23
2018-09-18T01:40:36.111Z,11.21
2018-09-18T01:43:03.004Z,11.18
2018-09-18T01:45:29.896Z,11.17
2018-09-18T01:47:56.787Z,11.13
2018-09-18T01:50:23.687Z,11.12
2018-09-18T01:52:50.572Z,11.11
2018-09-18T01:55:17.480Z,11.11
2018-09-18T01:57:44.369Z,11.11
2018-09-18T02:00:11.296Z,11.14
2018-09-18T02:02:38.192Z,11.12
2018-09-18T02:05:05.120Z,11.14
2018-09-18T02:07:32.016Z,11.16
2018-09-18T02:09:58.924Z,11.14
2018-09-18T02:12:25.809Z,11.12
2018-09-18T02:14:52.712Z,11.14
2018-09-18T02:17:19.596Z,11.10
2018-09-18T02:19:46.517Z,11.10
2018-09-18T02:22:13.408Z,11.07
2018-09-18T02:24:40.298Z,11.03
2018-09-18T02:27:07.186Z,10.99
2018-09-18T02:29:34.128Z,10.99
2018-09-18T02:32:01.068Z,10.97
2018-09-18T02:34:27.980Z,10.99
2018-09-18T02:36:54.879Z,10.95
2018-09-18T02:39:21.757Z,10.97
2018-09-18T02:41:48.655Z,10.99
2018-09-18T02:44:15.585Z,10.99
2018-09-18T02:46:42.524Z,11.01
2018-09-18T02:49:09.433Z,11.07
2018-09-18T02:51:36.337Z,11.10
2018-09-18T02:54:03.225Z,11.12
2018-09-18T02:56:30.124Z,11.13
2018-09-18T02:58:57.013Z,11.09
2018-09-18T03:01:23.909Z,11.07
2018-09-18T03:03:50.880Z,11.07
2018-09-18T03:06:17.776Z,11.07
2018-09-18T03:08:44.656Z,11.04
2018-09-18T03:11:11.572Z,11.03
2018-09-18T03:13:38.475Z,10.98
2018-09-18T03:16:05.385Z,10.96
2018-09-18T03:18:32.288Z,10.96
2018-09-18T03:20:59.274Z,10.98
2018-09-18T03:23:26.150Z,11.00
2018-09-18T03:25:53.052Z,11.03
2018-09-18T03:28:20.791Z,11.03
2018-09-18T03:30:47.742Z,11.07
2018-09-18T03:33:14.757Z,11.07
2018-09-18T03:35:41.699Z,11.05
2018-09-18T03:38:08.548Z,11.07
2018-09-18T03:40:35.447Z,11.04
2018-09-18T03:43:02.359Z,11.02
2018-09-18T03:45:29.264Z,10.96
2018-09-18T03:47:56.164Z,10.93
2018-09-18T03:50:23.061Z,10.90
2018-09-18T03:52:49.956Z,10.96
2018-09-18T03:55:16.867Z,10.93
2018-09-18T03:57:43.767Z,10.92
2018-09-18T04:00:10.689Z,10.95
2018-09-18T04:02:37.572Z,10.95
2018-09-18T04:05:04.485Z,10.99
2018-09-18T04:07:31.397Z,11.01
2018-09-18T04:09:58.281Z,11.04
2018-09-18T04:12:25.181Z,11.07
2018-09-18T04:14:52.061Z,11.08
2018-09-18T04:17:19.201Z,11.07
2018-09-18T04:19:46.115Z,11.06
2018-09-18T04:22:13.008Z,11.06
2018-09-18T04:24:39.896Z,11.03
2018-09-18T04:27:06.790Z,11.04
2018-09-18T04:29:33.665Z,11.01
2018-09-18T04:32:07.345Z,11.01
2018-09-18T04:34:34.246Z,10.99
2018-09-18T04:37:01.153Z,10.98
2018-09-18T04:39:28.047Z,10.98
2018-09-18T04:41:54.949Z,10.99
2018-09-18T04:44:21.844Z,10.97
2018-09-18T04:46:48.746Z,10.95
2018-09-18T04:49:15.648Z,10.96
2018-09-18T04:51:42.643Z,10.91
2018-09-18T04:54:09.528Z,10.84
2018-09-18T04:56:36.427Z,10.78
2018-09-18T04:59:03.316Z,10.73
2018-09-18T05:01:30.223Z,10.71
2018-09-18T05:03:57.149Z,10.66
2018-09-18T05:06:24.040Z,10.65
2018-09-18T05:08:50.948Z,10.61
2018-09-18T05:11:17.861Z,10.59
2018-09-18T05:13:44.768Z,10.58
2018-09-18T05:16:11.666Z,10.57
2018-09-18T05:18:38.593Z,10.56
2018-09-18T05:21:05.487Z,10.56
2018-09-18T05:23:32.386Z,10.54
2018-09-18T05:25:59.285Z,10.55
2018-09-18T05:28:26.202Z,10.55
2018-09-18T05:30:53.117Z,10.53
2018-09-18T05:33:20.037Z,10.56
2018-09-18T05:35:46.940Z,10.58
2018-09-18T05:38:14.069Z,10.59
2018-09-18T05:40:40.971Z,10.63
2018-09-18T05:43:07.867Z,10.66
2018-09-18T05:45:34.776Z,10.69
2018-09-18T05:48:01.702Z,10.75
2018-09-18T05:50:28.599Z,10.81
2018-09-18T05:52:55.589Z,10.86
2018-09-18T05:55:22.471Z,10.88
2018-09-18T05:57:49.372Z,10.94
2018-09-18T06:00:16.296Z,10.97
2018-09-18T06:02:43.201Z,11.02
2018-09-18T06:05:10.088Z,11.09
2018-09-18T06:07:37.344Z,11.17
2018-09-18T06:10:04.732Z,11.32
2018-09-18T06:12:31.722Z,11.46
2018-09-18T06:14:58.520Z,11.56
2018-09-18T06:17:25.411Z,11.68
2018-09-18T06:19:52.298Z,11.81
2018-09-18T06:22:19.196Z,11.89
2018-09-18T06:24:46.091Z,11.99
2018-09-18T06:27:12.974Z,12.05
2018-09-18T06:29:39.852Z,12.17
2018-09-18T06:32:06.723Z,12.29
2018-09-18T06:34:33.595Z,12.40
2018-09-18T06:37:00.562Z,12.50
2018-09-18T06:39:27.364Z,12.58
2018-09-18T06:41:54.244Z,12.66
2018-09-18T06:44:21.119Z,12.79
2018-09-18T06:46:47.992Z,12.99
2018-09-18T06:49:14.867Z,13.17
2018-09-18T06:51:41.762Z,13.37
2018-09-18T06:54:08.657Z,13.43
2018-09-18T06:56:35.520Z,13.70
2018-09-18T06:59:02.412Z,13.96
2018-09-18T07:01:29.351Z,14.15
2018-09-18T07:03:56.232Z,14.34
2018-09-18T07:06:23.101Z,14.57
2018-09-18T07:08:49.983Z,14.84
2018-09-18T07:11:16.906Z,15.02
2018-09-18T07:13:43.816Z,15.21
2018-09-18T07:16:10.695Z,15.38
2018-09-18T07:18:37.582Z,15.53
2018-09-18T07:21:04.741Z,15.71
2018-09-18T07:23:31.661Z,15.96
2018-09-18T07:25:58.528Z,16.17
2018-09-18T07:28:25.403Z,16.48
2018-09-18T07:30:52.320Z,16.94
2018-09-18T07:33:19.236Z,17.23
2018-09-18T07:35:46.110Z,17.54
2018-09-18T07:38:13.014Z,17.83
2018-09-18T07:40:39.895Z,18.01
2018-09-18T07:43:06.788Z,18.23
2018-09-18T07:45:33.676Z,18.38
2018-09-18T07:48:00.548Z,18.74
2018-09-18T07:50:27.433Z,18.85
2018-09-18T07:52:54.320Z,19.10
2018-09-18T07:55:21.213Z,19.36
2018-09-18T07:57:48.104Z,19.40
2018-09-18T08:00:15.041Z,19.73
2018-09-18T08:02:41.948Z,19.87
2018-09-18T08:05:08.895Z,20.10
2018-09-18T08:07:35.780Z,20.14
2018-09-18T08:10:02.764Z,20.25
2018-09-18T08:12:29.645Z,20.28
2018-09-18T08:14:56.533Z,20.43
2018-09-18T08:17:23.406Z,20.52
2018-09-18T08:19:50.339Z,20.74
2018-09-18T08:22:17.188Z,20.84
2018-09-18T08:24:44.177Z,20.83
2018-09-18T08:27:11.055Z,20.89
2018-09-18T08:29:37.952Z,21.02
2018-09-18T08:32:04.897Z,21.17
2018-09-18T08:34:31.813Z,21.24
2018-09-18T08:36:58.680Z,21.46
2018-09-18T08:39:25.598Z,21.59
2018-09-18T08:41:52.524Z,21.76
2018-09-18T08:44:19.439Z,21.83
2018-09-18T08:46:46.323Z,21.94
2018-09-18T08:49:13.205Z,22.10
2018-09-18T08:51:40.104Z,22.32
2018-09-18T08:54:07.007Z,22.39
2018-09-18T08:56:33.903Z,22.52
2018-09-18T08:59:00.797Z,22.55
2018-09-18T09:01:27.688Z,22.53
2018-09-18T09:03:54.564Z,22.65
2018-09-18T09:06:21.510Z,22.76
2018-09-18T09:08:48.466Z,23.01
2018-09-18T09:11:15.305Z,23.39
2018-09-18T09:13:42.217Z,23.39
2018-09-18T09:16:09.139Z,23.67
2018-09-18T09:18:36.081Z,23.72
2018-09-18T09:21:02.995Z,23.71
2018-09-18T09:23:30.335Z,23.95
2018-09-18T09:25:57.239Z,24.08
2018-09-18T09:28:24.135Z,24.13
2018-09-18T09:30:51.048Z,24.19
2018-09-18T09:33:17.985Z,24.41
2018-09-18T09:35:44.868Z,24.73
2018-09-18T09:38:11.783Z,24.80
2018-09-18T09:40:38.668Z,24.86
2018-09-18T09:43:05.607Z,25.03
2018-09-18T09:45:32.513Z,25.31
2018-09-18T09:47:59.420Z,24.98
2018-09-18T09:50:26.321Z,25.10
2018-09-18T09:52:53.241Z,25.27
2018-09-18T09:55:20.142Z,25.45
2018-09-18T09:57:47.058Z,25.43
2018-09-18T10:00:19.894Z,25.47
2018-09-18T10:02:47.511Z,25.53
2018-09-18T10:05:15.281Z,25.53
2018-09-18T10:07:42.419Z,25.64
2018-09-18T10:10:09.332Z,25.53
2018-09-18T10:12:36.204Z,25.73
2018-09-18T10:15:03.109Z,25.83
2018-09-18T10:17:29.984Z,25.85
2018-09-18T10:19:56.871Z,26.13
2018-09-18T10:22:23.751Z,26.28
2018-09-18T10:24:50.620Z,26.44
2018-09-18T10:27:17.548Z,26.41
2018-09-18T10:29:44.423Z,26.61
2018-09-18T10:32:11.316Z,26.79
2018-09-18T10:34:38.192Z,27.25
2018-09-18T10:37:05.119Z,27.28
2018-09-18T10:39:32.015Z,27.25
2018-09-18T10:41:59.007Z,27.19
2018-09-18T10:44:25.790Z,27.14
2018-09-18T10:46:52.718Z,27.13
2018-09-18T10:49:19.586Z,27.11
2018-09-18T10:51:46.463Z,27.34
2018-09-18T10:54:13.357Z,27.40
2018-09-18T10:56:40.253Z,27.29
2018-09-18T10:59:07.140Z,27.41
2018-09-18T11:01:34.062Z,27.34
2018-09-18T11:04:00.957Z,27.51
2018-09-18T11:06:27.837Z,27.87
2018-09-18T11:08:54.741Z,28.05
2018-09-18T11:11:21.657Z,28.16
2018-09-18T11:13:48.596Z,28.08
2018-09-18T11:16:15.524Z,28.11
2018-09-18T11:18:42.329Z,28.05
2018-09-18T11:21:09.228Z,28.21
2018-09-18T11:23:36.100Z,28.43
2018-09-18T11:26:02.976Z,28.38
2018-09-18T11:28:29.885Z,28.17
2018-09-18T11:30:56.787Z,28.27
2018-09-18T11:33:23.675Z,28.55
2018-09-18T11:35:50.555Z,28.46
2018-09-18T11:38:17.534Z,28.33
2018-09-18T11:40:44.405Z,28.31
2018-09-18T11:43:11.289Z,28.31
2018-09-18T11:45:38.241Z,28.28
2018-09-18T11:48:05.056Z,28.43
2018-09-18T11:50:31.937Z,28.48
2018-09-18T11:52:59.616Z,28.59
2018-09-18T11:55:26.504Z,28.63
2018-09-18T11:57:53.433Z,28.76
2018-09-18T12:00:20.392Z,28.69
2018-09-18T12:02:47.311Z,28.67
2018-09-18T12:05:14.263Z,28.73
2018-09-18T12:07:41.398Z,28.91
2018-09-18T12:10:08.308Z,28.74
2018-09-18T12:12:35.196Z,28.74
2018-09-18T12:15:02.084Z,28.78
2018-09-18T12:17:28.975Z,28.83
2018-09-18T12:19:55.866Z,28.93
2018-09-18T12:22:22.838Z,28.89
2018-09-18T12:24:49.741Z,28.93
2018-09-18T12:27:16.978Z,29.20
2018-09-18T12:29:43.924Z,29.27
2018-09-18T12:32:10.844Z,29.31
2018-09-18T12:37:11.536Z,29.31
2018-09-18T12:39:38.460Z,29.42
2018-09-18T12:42:05.517Z,29.42
2018-09-18T12:44:32.448Z,29.33
2018-09-18T12:46:59.348Z,29.31
2018-09-18T12:49:26.356Z,29.32
2018-09-18T12:51:53.136Z,29.29
2018-09-18T12:54:20.032Z,29.27
2018-09-18T12:56:46.994Z,29.34
2018-09-18T12:59:13.901Z,29.39
2018-09-18T13:01:40.772Z,29.46
2018-09-18T13:04:07.672Z,29.41
2018-09-18T13:06:34.772Z,29.36
2018-09-18T13:09:01.477Z,29.57
2018-09-18T13:11:28.378Z,29.68
2018-09-18T13:13:55.333Z,29.66
2018-09-18T13:16:22.215Z,29.65
2018-09-18T13:18:49.103Z,29.59
2018-09-18T13:21:15.997Z,29.53
2018-09-18T13:23:43.009Z,29.59
2018-09-18T13:26:09.944Z,29.69
2018-09-18T13:28:36.869Z,29.65
2018-09-18T13:31:03.777Z,29.64
2018-09-18T13:33:30.654Z,29.75
2018-09-18T13:35:57.545Z,29.81
2018-09-18T13:38:24.436Z,29.85
2018-09-18T13:40:51.386Z,29.75
2018-09-18T13:43:18.215Z,29.73
2018-09-18T13:45:45.084Z,29.69
2018-09-18T13:48:11.981Z,29.65
2018-09-18T13:50:38.864Z,29.36
2018-09-18T13:53:05.786Z,29.20
2018-09-18T13:55:32.721Z,29.17
2018-09-18T13:57:59.586Z,29.03
2018-09-18T14:00:26.492Z,28.92
2018-09-18T14:02:53.363Z,28.84
2018-09-18T14:05:20.244Z,28.81
2018-09-18T14:07:47.120Z,28.78
2018-09-18T14:10:15.020Z,28.74
2018-09-18T14:12:41.893Z,28.74
2018-09-18T14:15:08.912Z,28.78
2018-09-18T14:17:35.749Z,28.74
2018-09-18T14:20:02.882Z,28.77
2018-09-18T14:22:29.763Z,28.83
2018-09-18T14:24:56.647Z,28.79
2018-09-18T14:27:23.521Z,28.80
2018-09-18T14:29:50.425Z,28.72
2018-09-18T14:32:17.447Z,28.73
2018-09-18T14:34:44.283Z,28.76
2018-09-18T14:37:11.156Z,28.72
2018-09-18T14:39:38.041Z,28.73
2018-09-18T14:42:04.925Z,28.71
2018-09-18T14:44:31.817Z,28.68
2018-09-18T14:46:58.801Z,28.62
2018-09-18T14:49:25.634Z,28.58
2018-09-18T14:51:52.612Z,28.71
2018-09-18T14:54:19.508Z,28.76
2018-09-18T14:56:46.391Z,28.76
2018-09-18T14:59:13.289Z,28.76
2018-09-18T15:01:40.180Z,28.82
2018-09-18T15:04:07.096Z,28.82
2018-09-18T15:06:33.980Z,28.76
2018-09-18T15:09:00.900Z,28.70
2018-09-18T15:11:27.801Z,28.72
2018-09-18T15:13:54.681Z,28.59
2018-09-18T15:16:21.576Z,28.60
2018-09-18T15:18:48.462Z,28.51
2018-09-18T15:21:15.345Z,28.45
2018-09-18T15:23:42.236Z,28.50
2018-09-18T15:26:09.141Z,28.61
2018-09-18T15:28:36.028Z,28.52
2018-09-18T15:31:02.968Z,28.42
2018-09-18T15:33:29.882Z,28.54
2018-09-18T15:35:56.752Z,28.42
2018-09-18T15:38:23.624Z,28.19
2018-09-18T15:40:50.532Z,28.21
2018-09-18T15:43:17.451Z,28.25
2018-09-18T15:45:44.446Z,28.12
2018-09-18T15:48:11.218Z,27.98
2018-09-18T15:50:38.107Z,28.15
2018-09-18T15:53:04.999Z,28.09
2018-09-18T15:55:31.901Z,27.98
2018-09-18T15:57:58.849Z,27.90
2018-09-18T16:00:25.655Z,27.90
2018-09-18T16:02:52.551Z,27.91
2018-09-18T16:05:19.458Z,27.80
2018-09-18T16:07:46.337Z,27.64
2018-09-18T16:10:13.216Z,27.63
2018-09-18T16:12:40.105Z,27.51
2018-09-18T16:15:07.057Z,27.41
2018-09-18T16:17:34.477Z,27.50
2018-09-18T16:20:01.412Z,27.10
2018-09-18T16:22:28.291Z,26.55
2018-09-18T16:24:55.237Z,26.13
2018-09-18T16:27:22.073Z,25.92
2018-09-18T16:29:48.976Z,25.70
2018-09-18T16:32:16.057Z,25.30
2018-09-18T16:34:42.937Z,24.75
2018-09-18T16:37:09.836Z,24.39
2018-09-18T16:39:36.709Z,24.13
2018-09-18T16:42:03.631Z,23.94
2018-09-18T16:44:30.512Z,23.63
2018-09-18T16:46:57.485Z,23.30
2018-09-18T16:49:24.389Z,23.10
2018-09-18T16:51:51.321Z,22.96
2018-09-18T16:54:18.367Z,22.79
2018-09-18T16:56:45.188Z,22.61
2018-09-18T16:59:12.114Z,22.47
2018-09-18T17:01:39.075Z,22.35
2018-09-18T17:04:05.937Z,22.22
2018-09-18T17:06:33.026Z,22.13
2018-09-18T17:08:59.882Z,22.03
2018-09-18T17:11:26.937Z,21.91
2018-09-18T17:13:53.893Z,21.82
2018-09-18T17:16:20.803Z,21.74
2018-09-18T17:18:47.654Z,21.64
2018-09-18T17:21:14.551Z,21.55
2018-09-18T17:23:41.440Z,21.49
2018-09-18T17:26:08.332Z,21.34
2018-09-18T17:28:35.235Z,21.28
2018-09-18T17:31:02.121Z,21.18
2018-09-18T17:33:28.997Z,21.06
2018-09-18T17:35:55.875Z,21.01
2018-09-18T17:38:22.761Z,20.90
2018-09-18T17:40:49.652Z,20.77
2018-09-18T17:43:16.518Z,20.72
2018-09-18T17:45:43.388Z,20.63
2018-09-18T17:48:10.251Z,20.51
2018-09-18T17:50:37.147Z,20.46
2018-09-18T17:53:04.041Z,20.36
2018-09-18T17:55:30.935Z,20.32
2018-09-18T17:57:57.814Z,20.27
2018-09-18T18:00:25.541Z,20.15
2018-09-18T18:05:30.927Z,20.02
2018-09-18T18:08:01.252Z,19.99
2018-09-18T18:10:29.745Z,19.88
2018-09-18T18:12:56.641Z,19.76
2018-09-18T18:15:23.543Z,19.68
2018-09-18T18:17:50.445Z,19.61
2018-09-18T18:20:17.419Z,19.54
2018-09-18T18:22:44.284Z,19.47
2018-09-18T18:25:11.192Z,19.38
2018-09-18T18:27:38.089Z,19.36
2018-09-18T18:30:05.224Z,19.34
2018-09-18T18:32:32.144Z,19.28
2018-09-18T18:34:59.035Z,19.21
2018-09-18T18:37:25.939Z,19.18
2018-09-18T18:39:52.833Z,19.09
2018-09-18T18:42:19.732Z,19.08
2018-09-18T18:44:46.716Z,19.02
2018-09-18T18:47:13.613Z,18.96
2018-09-18T18:49:40.511Z,18.92
2018-09-18T18:52:07.428Z,18.86
2018-09-18T18:54:34.374Z,18.84
2018-09-18T18:57:01.299Z,18.81
2018-09-18T18:59:28.136Z,18.82
2018-09-18T19:01:55.044Z,18.75
2018-09-18T19:04:21.947Z,18.67
2018-09-18T19:06:48.930Z,18.55
2018-09-18T19:09:15.769Z,18.54
2018-09-18T19:11:42.691Z,18.57
2018-09-18T19:14:09.600Z,18.53
2018-09-18T19:16:36.491Z,18.46
2018-09-18T19:19:03.399Z,18.42
2018-09-18T19:21:30.289Z,18.42
2018-09-18T19:23:57.214Z,18.37
2018-09-18T19:26:24.089Z,18.48
2018-09-18T19:28:50.981Z,18.35
2018-09-18T19:31:17.876Z,18.32
2018-09-18T19:33:44.787Z,18.32
2018-09-18T19:36:11.685Z,18.29
2018-09-18T19:38:38.572Z,18.24
2018-09-18T19:41:05.480Z,18.21
2018-09-18T19:43:32.356Z,18.19
2018-09-18T19:45:59.577Z,18.15
2018-09-18T19:48:27.197Z,18.12
2018-09-18T19:50:54.594Z,18.06
2018-09-18T19:53:22.001Z,18.05
2018-09-18T19:55:49.374Z,17.99
2018-09-18T19:58:16.497Z,17.94
2018-09-18T20:00:43.540Z,17.94
2018-09-18T20:03:10.524Z,17.87
2018-09-18T20:05:37.568Z,17.85
2018-09-18T20:08:04.800Z,17.84
2018-09-18T20:10:31.988Z,17.77
2018-09-18T20:12:59.101Z,17.74
2018-09-18T20:15:26.148Z,17.69
2018-09-18T20:17:53.226Z,17.70
2018-09-18T20:20:20.289Z,17.68
2018-09-18T20:22:47.472Z,17.69
2018-09-18T20:25:14.619Z,17.62
2018-09-18T20:27:41.688Z,17.61
2018-09-18T20:30:08.910Z,17.58
2018-09-18T20:32:35.817Z,17.56
2018-09-18T20:35:02.757Z,17.57
2018-09-18T20:37:29.695Z,17.57
2018-09-18T20:39:56.617Z,17.60
2018-09-18T20:42:23.528Z,17.58
2018-09-18T20:44:50.505Z,17.60
2018-09-18T20:47:17.380Z,17.60
2018-09-18T20:49:44.279Z,17.56
2018-09-18T20:52:11.178Z,17.51
2018-09-18T20:54:38.076Z,17.56
2018-09-18T20:57:05.000Z,17.55
2018-09-18T20:59:31.906Z,17.56
2018-09-18T21:01:58.818Z,17.55
2018-09-18T21:04:25.713Z,17.57
2018-09-18T21:06:52.627Z,17.57
2018-09-18T21:09:19.530Z,17.58
2018-09-18T21:11:46.431Z,17.63
2018-09-18T21:14:13.348Z,17.62
2018-09-18T21:16:40.258Z,17.63
2018-09-18T21:19:07.369Z,17.63
2018-09-18T21:21:34.293Z,17.63
2018-09-18T21:24:01.231Z,17.61
2018-09-18T21:26:28.187Z,17.60
2018-09-18T21:28:55.076Z,17.60
2018-09-18T21:31:22.000Z,17.58
2018-09-18T21:33:48.905Z,17.56
2018-09-18T21:36:15.812Z,17.52
2018-09-18T21:38:42.714Z,17.49
2018-09-18T21:41:09.619Z,17.44
2018-09-18T21:43:36.508Z,17.42
2018-09-18T21:46:03.476Z,17.33
2018-09-18T21:48:30.366Z,17.29
2018-09-18T21:50:57.268Z,17.27
2018-09-18T21:53:24.171Z,17.23
2018-09-18T21:55:51.080Z,17.22
2018-09-18T21:58:18.050Z,17.16
2018-09-18T22:00:44.948Z,17.12
2018-09-18T22:03:11.888Z,17.12
2018-09-18T22:05:38.846Z,17.08
2018-09-18T22:08:05.934Z,17.02
2018-09-18T22:10:32.914Z,17.03
2018-09-18T22:13:00.532Z,17.04
2018-09-18T22:15:28.193Z,16.94
2018-09-18T22:17:55.116Z,16.89
2018-09-18T22:20:22.622Z,16.86
2018-09-18T22:22:49.845Z,16.84
2018-09-18T22:25:16.816Z,16.82
2018-09-18T22:27:43.725Z,16.83
2018-09-18T22:30:10.701Z,16.80
2018-09-18T22:32:37.628Z,16.73
2018-09-18T22:35:04.531Z,16.72
2018-09-18T22:37:31.448Z,16.64
2018-09-18T22:39:58.360Z,16.58
2018-09-18T22:42:25.271Z,16.57
2018-09-18T22:44:52.467Z,16.56
2018-09-18T22:47:19.379Z,16.53
2018-09-18T22:49:46.395Z,16.49
2018-09-18T22:52:13.292Z,16.41
2018-09-18T22:54:40.193Z,16.39
2018-09-18T22:57:07.306Z,16.32
2018-09-18T22:59:34.204Z,16.24
2018-09-18T23:02:01.105Z,16.26
2018-09-18T23:04:27.991Z,16.24
2018-09-18T23:06:54.884Z,16.29
2018-09-18T23:09:21.784Z,16.30
2018-09-18T23:11:48.724Z,16.29
2018-09-18T23:14:15.587Z,16.28
2018-09-18T23:16:42.866Z,16.27
2018-09-18T23:19:09.784Z,16.27
2018-09-18T23:21:36.720Z,16.25
2018-09-18T23:24:03.652Z,16.22
2018-09-18T23:26:30.547Z,16.16
2018-09-18T23:28:57.445Z,16.13
2018-09-18T23:31:24.357Z,16.10
2018-09-18T23:33:51.265Z,16.09
2018-09-18T23:36:18.156Z,16.04
2018-09-18T23:38:45.049Z,16.00
2018-09-18T23:41:11.936Z,15.96
2018-09-18T23:43:38.833Z,15.93
2018-09-18T23:46:05.756Z,15.90
2018-09-18T23:48:32.728Z,15.91
2018-09-18T23:50:59.615Z,15.93
2018-09-18T23:53:26.508Z,15.92
2018-09-18T23:55:53.479Z,15.92
2018-09-18T23:58:20.364Z,15.90
